Time;durP1;ratioP1;P1;durP2;ratioP2;P2;SDS_P1;SDS_P2;PMS_P1;PMS_P2;Temp;Humidity;BMP_temperature;BMP_pressure;BME280_temperature;BME280_humidity;BME280_pressure;Samples;Min_cycle;Max_cycle;Signal;HPM_P1;HPM_P2
2021/08/02 00:01:20;;;;;;;6.30;3.40;;;;;;;;;;4983276;28;20042;-82
2021/08/02 00:03:50;;;;;;;5.90;3.92;;;;;;;;;;4993992;28;20050;-81
2021/08/02 00:06:22;;;;;;;7.28;3.28;;;;;;;;;;4995226;28;20058;-82
2021/08/02 00:08:54;;;;;;;6.95;3.40;;;;;;;;;;4995369;28;20116;-82
2021/08/02 00:11:20;;;;;;;4.95;3.03;;;;;;;;;;4991786;28;20039;-82
2021/08/02 00:13:51;;;;;;;7.53;3.67;;;;;;;;;;4974295;28;20408;-82
2021/08/02 00:16:18;;;;;;;6.95;3.83;;;;;;;;;;4975825;28;20480;-81
2021/08/02 00:18:45;;;;;;;5.88;3.40;;;;;;;;;;4974319;28;20492;-81
2021/08/02 00:21:12;;;;;;;7.00;4.03;;;;;;;;;;4975655;28;20054;-81
2021/08/02 00:23:39;;;;;;;7.88;3.78;;;;;;;;;;4974614;28;20054;-82
2021/08/02 00:26:06;;;;;;;6.05;3.40;;;;;;;;;;4975780;28;20054;-81
2021/08/02 00:28:33;;;;;;;6.88;3.88;;;;;;;;;;4974170;28;20051;-81
2021/08/02 00:31:01;;;;;;;7.32;3.92;;;;;;;;;;4988066;28;20484;-82
2021/08/02 00:33:27;;;;;;;6.65;3.70;;;;;;;;;;4994753;28;20053;-81
2021/08/02 00:35:58;;;;;;;6.88;3.15;;;;;;;;;;4990582;28;20046;-81
2021/08/02 00:38:36;;;;;;;7.38;3.83;;;;;;;;;;4984231;28;20104;-82
2021/08/02 00:41:20;;;;;;;7.10;3.70;;;;;;;;;;4987704;28;20483;-81
2021/08/02 00:44:28;;;;;;;5.85;3.80;;;;;;;;;;4976269;28;20043;-82
2021/08/02 00:47:00;;;;;;;5.70;3.25;;;;;;;;;;4975040;28;20054;-82
2021/08/02 00:49:27;;;;;;;7.20;3.53;;;;;;;;;;4974781;28;20081;-82
2021/08/02 00:51:56;;;;;;;9.77;3.83;;;;;;;;;;4987337;28;20518;-82
2021/08/02 00:54:25;;;;;;;7.32;3.92;;;;;;;;;;4994283;28;20054;-82
2021/08/02 00:56:52;;;;;;;5.57;3.60;;;;;;;;;;4994298;28;20128;-82
2021/08/02 00:59:19;;;;;;;6.47;3.40;;;;;;;;;;4994321;28;20042;-82
2021/08/02 01:01:46;;;;;;;8.13;3.67;;;;;;;;;;5009669;28;20062;-82
2021/08/02 01:04:14;;;;;;;8.95;4.15;;;;;;;;;;4993933;28;20411;-82
2021/08/02 01:06:41;;;;;;;7.55;3.72;;;;;;;;;;4994474;28;20051;-82
2021/08/02 01:09:08;;;;;;;5.47;4.20;;;;;;;;;;4994127;28;20424;-82
2021/08/02 01:11:35;;;;;;;6.75;3.97;;;;;;;;;;4993299;28;20050;-82
2021/08/02 01:14:03;;;;;;;8.85;3.92;;;;;;;;;;4994113;28;20046;-82
2021/08/02 01:16:31;;;;;;;8.45;4.72;;;;;;;;;;4994173;28;20057;-82
2021/08/02 01:18:59;;;;;;;7.20;3.88;;;;;;;;;;4993627;28;21593;-82
2021/08/02 01:21:27;;;;;;;8.90;4.65;;;;;;;;;;4993657;28;20046;-82
2021/08/02 01:23:56;;;;;;;7.80;4.28;;;;;;;;;;4994380;28;20053;-82
2021/08/02 01:27:11;;;;;;;6.78;4.68;;;;;;;;;;4993836;28;20054;-82
2021/08/02 01:30:16;;;;;;;8.88;4.22;;;;;;;;;;4968141;28;20046;-82
2021/08/02 01:32:43;;;;;;;7.18;4.03;;;;;;;;;;4986978;28;20515;-82
2021/08/02 01:35:12;;;;;;;11.75;4.57;;;;;;;;;;4994031;28;20050;-82
2021/08/02 01:37:39;;;;;;;9.30;4.70;;;;;;;;;;4993733;28;20042;-82
2021/08/02 01:40:09;;;;;;;7.38;4.00;;;;;;;;;;4992145;28;20410;-82
2021/08/02 01:42:36;;;;;;;8.40;4.20;;;;;;;;;;4993867;28;20046;-82
2021/08/02 01:45:02;;;;;;;6.35;3.97;;;;;;;;;;4993841;28;20193;-82
2021/08/02 01:47:33;;;;;;;8.98;4.20;;;;;;;;;;4992637;28;20050;-82
2021/08/02 01:50:07;;;;;;;6.45;4.05;;;;;;;;;;4993632;28;20050;-82
2021/08/02 01:52:39;;;;;;;7.18;4.32;;;;;;;;;;4993610;28;20054;-82
2021/08/02 01:55:09;;;;;;;8.32;4.35;;;;;;;;;;4993809;28;20105;-82
2021/08/02 01:57:42;;;;;;;7.50;4.80;;;;;;;;;;4993379;28;20046;-82
2021/08/02 02:00:11;;;;;;;7.35;4.72;;;;;;;;;;4989405;28;20488;-82
2021/08/02 02:02:39;;;;;;;8.00;4.90;;;;;;;;;;4974439;28;20050;-82
2021/08/02 02:05:07;;;;;;;6.68;4.10;;;;;;;;;;4974422;28;20043;-82
2021/08/02 02:07:42;;;;;;;9.23;4.32;;;;;;;;;;4993574;28;20496;-82
2021/08/02 02:10:11;;;;;;;7.32;4.47;;;;;;;;;;4992463;28;20105;-83
2021/08/02 02:12:38;;;;;;;9.30;4.78;;;;;;;;;;4993638;28;20496;-82
2021/08/02 02:15:06;;;;;;;9.65;4.78;;;;;;;;;;4993064;28;20495;-82
2021/08/02 02:17:34;;;;;;;8.32;4.35;;;;;;;;;;4993430;28;20054;-82
2021/08/02 02:20:01;;;;;;;9.00;5.05;;;;;;;;;;4993448;28;20070;-81
2021/08/02 02:22:28;;;;;;;8.77;4.88;;;;;;;;;;4993341;28;20061;-81
2021/08/02 02:24:55;;;;;;;9.77;5.47;;;;;;;;;;4992883;28;20038;-82
2021/08/02 02:27:23;;;;;;;7.10;4.60;;;;;;;;;;4989935;28;20577;-82
2021/08/02 02:29:50;;;;;;;7.78;4.70;;;;;;;;;;4993299;28;20057;-81
2021/08/02 02:32:17;;;;;;;9.57;4.97;;;;;;;;;;4993325;28;20046;-82
2021/08/02 02:34:46;;;;;;;7.10;4.43;;;;;;;;;;4993343;28;20046;-82
2021/08/02 02:37:12;;;;;;;8.77;4.38;;;;;;;;;;4992943;28;20050;-81
2021/08/02 02:39:39;;;;;;;7.03;4.60;;;;;;;;;;4993014;28;20380;-82
2021/08/02 02:42:06;;;;;;;8.30;4.93;;;;;;;;;;4985664;28;20046;-82
2021/08/02 02:44:34;;;;;;;10.25;4.97;;;;;;;;;;4973744;28;20058;-81
2021/08/02 02:47:01;;;;;;;7.88;4.47;;;;;;;;;;4989205;28;20058;-82
2021/08/02 02:49:28;;;;;;;8.00;5.22;;;;;;;;;;4992985;28;20057;-81
2021/08/02 02:51:55;;;;;;;8.98;5.40;;;;;;;;;;4991024;28;20487;-82
2021/08/02 02:54:22;;;;;;;10.43;4.90;;;;;;;;;;5007896;28;20054;-82
2021/08/02 02:56:49;;;;;;;8.75;5.13;;;;;;;;;;4993232;28;20047;-82
2021/08/02 02:59:15;;;;;;;9.00;5.32;;;;;;;;;;4993519;28;20407;-81
2021/08/02 03:01:46;;;;;;;8.13;4.25;;;;;;;;;;4975816;28;20046;-82
2021/08/02 03:04:13;;;;;;;9.15;5.75;;;;;;;;;;4993112;28;20058;-82
2021/08/02 03:06:42;;;;;;;9.85;6.05;;;;;;;;;;5008295;28;20042;-81
2021/08/02 03:09:10;;;;;;;9.30;5.03;;;;;;;;;;4994320;28;20050;-82
2021/08/02 03:11:36;;;;;;;10.68;4.88;;;;;;;;;;4981830;28;20047;-81
2021/08/02 03:14:04;;;;;;;10.55;5.70;;;;;;;;;;4989175;28;20046;-82
2021/08/02 03:16:31;;;;;;;7.38;4.65;;;;;;;;;;4976752;28;20055;-82
2021/08/02 03:18:59;;;;;;;8.43;5.45;;;;;;;;;;4960164;28;20058;-82
2021/08/02 03:21:26;;;;;;;11.70;4.90;;;;;;;;;;4975716;28;20404;-82
2021/08/02 03:23:59;;;;;;;10.68;5.07;;;;;;;;;;4975923;28;20407;-82
2021/08/02 03:26:30;;;;;;;9.27;5.35;;;;;;;;;;4977059;28;20058;-82
2021/08/02 03:29:00;;;;;;;9.38;6.00;;;;;;;;;;4991401;28;20388;-82
2021/08/02 03:31:29;;;;;;;9.38;5.88;;;;;;;;;;4996470;28;20097;-82
2021/08/02 03:33:59;;;;;;;7.32;5.30;;;;;;;;;;4995266;28;20483;-82
2021/08/02 03:36:27;;;;;;;9.07;6.05;;;;;;;;;;4996128;28;20104;-82
2021/08/02 03:38:54;;;;;;;7.82;5.45;;;;;;;;;;4996621;28;20191;-82
2021/08/02 03:41:21;;;;;;;7.60;5.10;;;;;;;;;;4997994;28;20073;-82
2021/08/02 03:43:49;;;;;;;9.57;5.55;;;;;;;;;;4997575;28;20058;-82
2021/08/02 03:46:17;;;;;;;10.45;5.43;;;;;;;;;;4993969;28;20054;-82
2021/08/02 03:48:44;;;;;;;14.57;6.97;;;;;;;;;;4983802;28;20058;-81
2021/08/02 03:51:12;;;;;;;8.38;5.13;;;;;;;;;;4996408;28;20402;-82
2021/08/02 03:53:40;;;;;;;13.35;6.22;;;;;;;;;;4996514;28;20514;-81
2021/08/02 03:56:08;;;;;;;8.88;5.75;;;;;;;;;;4995935;28;20047;-81
2021/08/02 03:58:34;;;;;;;11.10;6.22;;;;;;;;;;4991535;28;20093;-82
2021/08/02 04:01:01;;;;;;;9.38;5.72;;;;;;;;;;4987203;28;20044;-81
2021/08/02 04:03:27;;;;;;;8.80;5.82;;;;;;;;;;4988441;28;20051;-82
2021/08/02 04:05:57;;;;;;;11.30;5.53;;;;;;;;;;4987778;28;20062;-82
2021/08/02 04:08:25;;;;;;;12.32;6.90;;;;;;;;;;4994215;28;20064;-82
2021/08/02 04:10:52;;;;;;;10.18;6.60;;;;;;;;;;4977697;28;20054;-81
2021/08/02 04:13:19;;;;;;;10.20;6.72;;;;;;;;;;4991851;28;20051;-82
2021/08/02 04:15:45;;;;;;;10.80;6.40;;;;;;;;;;4989969;28;20070;-82
2021/08/02 04:18:12;;;;;;;11.05;6.55;;;;;;;;;;4976418;28;20055;-82
2021/08/02 04:20:39;;;;;;;10.68;7.25;;;;;;;;;;4989163;28;20042;-83
2021/08/02 04:23:05;;;;;;;11.38;7.28;;;;;;;;;;4990697;28;20491;-82
2021/08/02 04:25:33;;;;;;;12.85;6.57;;;;;;;;;;4984434;28;20042;-82
2021/08/02 04:27:59;;;;;;;11.48;7.20;;;;;;;;;;4993035;28;20046;-83
2021/08/02 04:30:26;;;;;;;9.93;6.35;;;;;;;;;;4990726;28;20047;-83
2021/08/02 04:32:52;;;;;;;15.63;7.88;;;;;;;;;;4968709;28;20038;-81
2021/08/02 04:35:19;;;;;;;11.70;7.05;;;;;;;;;;4984675;28;20054;-82
2021/08/02 04:37:45;;;;;;;12.23;7.20;;;;;;;;;;4990157;28;20042;-82
2021/08/02 04:40:13;;;;;;;11.30;7.22;;;;;;;;;;4987161;28;20521;-83
2021/08/02 04:42:41;;;;;;;10.98;7.45;;;;;;;;;;4992347;28;20467;-83
2021/08/02 04:45:09;;;;;;;11.25;6.30;;;;;;;;;;4993080;28;20054;-83
2021/08/02 04:47:35;;;;;;;12.50;7.32;;;;;;;;;;4990520;28;20058;-82
2021/08/02 04:50:02;;;;;;;11.65;6.82;;;;;;;;;;4989709;28;20051;-82
2021/08/02 04:52:28;;;;;;;11.75;6.85;;;;;;;;;;4976917;28;20055;-82
2021/08/02 04:54:56;;;;;;;12.88;6.85;;;;;;;;;;4977109;28;20059;-83
2021/08/02 04:57:26;;;;;;;10.70;6.85;;;;;;;;;;4994379;28;20539;-83
2021/08/02 04:59:53;;;;;;;12.45;7.40;;;;;;;;;;4993738;28;20050;-84
2021/08/02 05:02:20;;;;;;;11.48;7.13;;;;;;;;;;4996700;28;20050;-84
2021/08/02 05:04:47;;;;;;;12.85;7.65;;;;;;;;;;4978046;28;20515;-83
2021/08/02 05:07:13;;;;;;;11.25;7.13;;;;;;;;;;4995606;28;20061;-83
2021/08/02 05:09:40;;;;;;;11.95;7.65;;;;;;;;;;5011941;28;20137;-83
2021/08/02 05:12:07;;;;;;;11.02;6.57;;;;;;;;;;5012485;28;20050;-82
2021/08/02 05:14:33;;;;;;;13.95;7.45;;;;;;;;;;4997204;28;20046;-82
2021/08/02 05:17:01;;;;;;;10.50;8.00;;;;;;;;;;4997259;28;20134;-82
2021/08/02 05:19:28;;;;;;;12.45;7.22;;;;;;;;;;4995317;28;20118;-85
2021/08/02 05:21:55;;;;;;;11.77;7.30;;;;;;;;;;4993627;28;20050;-83
2021/08/02 05:24:21;;;;;;;11.30;7.03;;;;;;;;;;4977270;28;20062;-82
2021/08/02 05:26:47;;;;;;;12.95;8.82;;;;;;;;;;4991366;28;20065;-82
2021/08/02 05:29:14;;;;;;;15.32;8.05;;;;;;;;;;4995359;28;20060;-81
2021/08/02 05:31:41;;;;;;;22.75;8.40;;;;;;;;;;4987416;28;20047;-82
2021/08/02 05:34:08;;;;;;;10.93;7.85;;;;;;;;;;4960786;28;20061;-82
2021/08/02 05:36:35;;;;;;;11.63;7.25;;;;;;;;;;4982894;28;20149;-82
2021/08/02 05:39:01;;;;;;;14.13;8.40;;;;;;;;;;4999093;28;20384;-82
2021/08/02 05:41:28;;;;;;;13.35;8.20;;;;;;;;;;4980820;28;20042;-83
2021/08/02 05:43:55;;;;;;;13.43;8.48;;;;;;;;;;4980933;28;20085;-82
2021/08/02 05:46:21;;;;;;;14.60;9.32;;;;;;;;;;4998346;28;20051;-82
2021/08/02 05:48:48;;;;;;;15.30;9.85;;;;;;;;;;4997487;28;20053;-82
2021/08/02 05:51:15;;;;;;;14.93;8.98;;;;;;;;;;4997838;28;20054;-83
2021/08/02 05:53:42;;;;;;;14.70;8.13;;;;;;;;;;5001824;28;20042;-82
2021/08/02 05:56:09;;;;;;;11.18;8.02;;;;;;;;;;5001548;28;20050;-83
2021/08/02 05:58:36;;;;;;;9.70;6.97;;;;;;;;;;5000363;28;20458;-82
2021/08/02 06:01:03;;;;;;;10.45;7.03;;;;;;;;;;5000177;28;20043;-83
2021/08/02 06:03:29;;;;;;;12.23;7.88;;;;;;;;;;5005002;28;20057;-82
2021/08/02 06:05:56;;;;;;;14.80;8.35;;;;;;;;;;5005482;28;20053;-82
2021/08/02 06:08:23;;;;;;;12.32;8.43;;;;;;;;;;5004379;28;20050;-83
2021/08/02 06:10:50;;;;;;;13.65;8.95;;;;;;;;;;5004923;28;20054;-83
2021/08/02 06:13:16;;;;;;;12.38;8.63;;;;;;;;;;5004982;28;20054;-83
2021/08/02 06:15:43;;;;;;;11.75;8.48;;;;;;;;;;5003648;28;20043;-83
2021/08/02 06:18:09;;;;;;;10.80;7.63;;;;;;;;;;4982669;28;20054;-84
2021/08/02 06:20:36;;;;;;;14.50;8.48;;;;;;;;;;4983537;28;20042;-83
2021/08/02 06:23:03;;;;;;;10.57;7.15;;;;;;;;;;5000133;28;20050;-83
2021/08/02 06:25:31;;;;;;;13.23;8.82;;;;;;;;;;4982059;28;20046;-84
2021/08/02 06:27:58;;;;;;;12.80;8.38;;;;;;;;;;4999460;28;20047;-83
2021/08/02 06:30:24;;;;;;;14.15;9.02;;;;;;;;;;4986801;28;20050;-84
2021/08/02 06:32:51;;;;;;;13.48;9.20;;;;;;;;;;4992119;28;20050;-83
2021/08/02 06:35:18;;;;;;;14.18;8.00;;;;;;;;;;5000077;28;20408;-84
2021/08/02 06:37:45;;;;;;;17.00;9.30;;;;;;;;;;4999363;28;20054;-83
2021/08/02 06:40:12;;;;;;;12.68;7.93;;;;;;;;;;4999666;28;20046;-83
2021/08/02 06:42:40;;;;;;;11.57;8.10;;;;;;;;;;4999202;28;20050;-83
2021/08/02 06:45:08;;;;;;;13.60;8.93;;;;;;;;;;4997779;28;20050;-83
2021/08/02 06:47:34;;;;;;;14.13;8.50;;;;;;;;;;4999301;28;20418;-82
2021/08/02 06:50:01;;;;;;;12.95;8.82;;;;;;;;;;4982593;28;20697;-82
2021/08/02 06:52:27;;;;;;;13.40;8.73;;;;;;;;;;4998602;28;20050;-82
2021/08/02 06:54:54;;;;;;;13.93;9.25;;;;;;;;;;5002370;28;20054;-82
2021/08/02 06:57:21;;;;;;;13.80;9.85;;;;;;;;;;4999148;28;20050;-83
2021/08/02 06:59:48;;;;;;;13.82;9.00;;;;;;;;;;4981456;28;20090;-83
2021/08/02 07:02:15;;;;;;;13.07;8.85;;;;;;;;;;4998482;28;20046;-82
2021/08/02 07:04:41;;;;;;;11.13;8.20;;;;;;;;;;4999498;28;20050;-83
2021/08/02 07:07:08;;;;;;;13.93;8.82;;;;;;;;;;4999831;28;20055;-82
2021/08/02 07:09:37;;;;;;;13.25;8.57;;;;;;;;;;5000433;28;20222;-82
2021/08/02 07:12:06;;;;;;;12.43;10.05;;;;;;;;;;4999532;28;20451;-83
2021/08/02 07:14:32;;;;;;;11.20;8.32;;;;;;;;;;4999500;28;20046;-83
2021/08/02 07:17:00;;;;;;;13.18;9.57;;;;;;;;;;5000956;28;20050;-83
2021/08/02 07:19:27;;;;;;;17.42;9.50;;;;;;;;;;4998326;28;20129;-82
2021/08/02 07:21:53;;;;;;;14.05;9.20;;;;;;;;;;4999219;28;20050;-82
2021/08/02 07:24:20;;;;;;;15.82;10.55;;;;;;;;;;5000156;28;20054;-82
2021/08/02 07:26:47;;;;;;;13.57;10.05;;;;;;;;;;4999382;28;20047;-82
2021/08/02 07:29:13;;;;;;;11.43;8.65;;;;;;;;;;4997854;28;20491;-82
2021/08/02 07:31:40;;;;;;;14.75;9.70;;;;;;;;;;4981732;28;20050;-83
2021/08/02 07:34:08;;;;;;;14.50;9.73;;;;;;;;;;4987875;28;20084;-83
2021/08/02 07:36:35;;;;;;;14.10;9.88;;;;;;;;;;4999612;28;20050;-83
2021/08/02 07:39:01;;;;;;;10.95;8.20;;;;;;;;;;4998679;28;20038;-83
2021/08/02 07:41:30;;;;;;;13.45;9.32;;;;;;;;;;4998908;28;20112;-82
2021/08/02 07:43:57;;;;;;;12.23;9.20;;;;;;;;;;4999285;28;20046;-83
2021/08/02 07:46:23;;;;;;;11.15;8.77;;;;;;;;;;5000841;28;20046;-83
2021/08/02 07:48:52;;;;;;;14.15;8.93;;;;;;;;;;5001322;28;20053;-83
2021/08/02 07:51:20;;;;;;;11.63;8.63;;;;;;;;;;5001429;28;20130;-84
2021/08/02 07:53:46;;;;;;;12.02;9.00;;;;;;;;;;5000776;28;20052;-83
2021/08/02 07:56:13;;;;;;;11.55;8.25;;;;;;;;;;5002189;28;20058;-85
2021/08/02 07:58:39;;;;;;;11.63;8.32;;;;;;;;;;5002053;28;20066;-84
2021/08/02 08:01:06;;;;;;;12.30;8.50;;;;;;;;;;5001040;28;20070;-84
2021/08/02 08:03:32;;;;;;;10.35;7.95;;;;;;;;;;5001434;28;20444;-83
2021/08/02 08:05:58;;;;;;;11.18;7.63;;;;;;;;;;5003079;28;20111;-83
2021/08/02 08:08:27;;;;;;;11.40;7.72;;;;;;;;;;5003145;28;20060;-83
2021/08/02 08:10:53;;;;;;;11.80;7.30;;;;;;;;;;5002087;28;20134;-83
2021/08/02 08:13:20;;;;;;;12.70;8.05;;;;;;;;;;5002308;28;20054;-83
2021/08/02 08:15:47;;;;;;;9.82;7.10;;;;;;;;;;4984065;28;20046;-85
2021/08/02 08:18:13;;;;;;;11.63;7.20;;;;;;;;;;5004206;28;20042;-84
2021/08/02 08:20:40;;;;;;;12.73;7.63;;;;;;;;;;5004593;28;20042;-84
2021/08/02 08:23:07;;;;;;;10.82;7.22;;;;;;;;;;5003115;28;20049;-83
2021/08/02 08:25:35;;;;;;;13.15;7.60;;;;;;;;;;5006929;28;20134;-85
2021/08/02 08:28:02;;;;;;;9.25;6.38;;;;;;;;;;5020277;28;20057;-84
2021/08/02 08:30:29;;;;;;;11.55;6.63;;;;;;;;;;5005854;28;20052;-86
2021/08/02 08:32:55;;;;;;;12.65;7.45;;;;;;;;;;5007550;28;20050;-85
2021/08/02 08:35:22;;;;;;;8.63;6.68;;;;;;;;;;5009194;28;20052;-86
2021/08/02 08:37:48;;;;;;;9.85;6.55;;;;;;;;;;5004364;28;20101;-83
2021/08/02 08:40:16;;;;;;;11.57;7.40;;;;;;;;;;4996012;28;20042;-83
2021/08/02 08:42:44;;;;;;;14.32;7.65;;;;;;;;;;4997027;28;20133;-85
2021/08/02 08:45:12;;;;;;;8.90;6.25;;;;;;;;;;4999807;28;20058;-84
2021/08/02 08:47:38;;;;;;;12.20;7.22;;;;;;;;;;4999058;28;20046;-83
2021/08/02 08:50:07;;;;;;;9.85;6.50;;;;;;;;;;4997227;28;20046;-84
2021/08/02 08:52:35;;;;;;;10.07;6.22;;;;;;;;;;4999293;28;20061;-84
2021/08/02 08:55:05;;;;;;;12.40;6.68;;;;;;;;;;4998915;28;20069;-84
2021/08/02 08:57:32;;;;;;;13.05;6.90;;;;;;;;;;4978200;28;20046;-83
2021/08/02 09:00:00;;;;;;;9.32;6.53;;;;;;;;;;4982252;28;20057;-84
2021/08/02 09:02:28;;;;;;;9.38;5.95;;;;;;;;;;4997798;28;20057;-85
2021/08/02 09:04:56;;;;;;;8.48;5.65;;;;;;;;;;4997558;28;20137;-84
2021/08/02 09:07:33;;;;;;;7.05;5.32;;;;;;;;;;4997394;28;20050;-84
2021/08/02 09:10:03;;;;;;;8.60;5.28;;;;;;;;;;4999028;28;20573;-85
2021/08/02 09:12:29;;;;;;;9.30;5.60;;;;;;;;;;5000675;28;20066;-84
2021/08/02 09:14:57;;;;;;;7.43;5.20;;;;;;;;;;5000522;28;20132;-86
2021/08/02 09:17:38;;;;;;;6.18;4.88;;;;;;;;;;4986394;28;20058;-84
2021/08/02 09:20:07;;;;;;;9.10;4.72;;;;;;;;;;4981021;28;20050;-84
2021/08/02 09:22:36;;;;;;;8.63;4.97;;;;;;;;;;5000779;28;20046;-84
2021/08/02 09:25:09;;;;;;;6.95;4.97;;;;;;;;;;5000949;28;20137;-83
2021/08/02 09:27:36;;;;;;;7.72;4.72;;;;;;;;;;4995438;28;20046;-84
2021/08/02 09:30:18;;;;;;;5.72;4.40;;;;;;;;;;4981581;28;20628;-84
2021/08/02 09:32:52;;;;;;;6.88;4.80;;;;;;;;;;4983340;28;20399;-84
2021/08/02 09:35:27;;;;;;;9.00;3.60;;;;;;;;;;4989539;28;20053;-84
2021/08/02 09:37:54;;;;;;;7.00;3.80;;;;;;;;;;5000042;28;20415;-84
2021/08/02 09:40:21;;;;;;;5.45;3.33;;;;;;;;;;4999610;28;20053;-85
2021/08/02 09:42:54;;;;;;;9.65;3.47;;;;;;;;;;5000758;28;20478;-85
2021/08/02 09:45:20;;;;;;;6.25;3.53;;;;;;;;;;4999659;28;20108;-85
2021/08/02 09:47:50;;;;;;;4.90;3.20;;;;;;;;;;4995683;28;20047;-86
2021/08/02 09:50:26;;;;;;;6.88;3.47;;;;;;;;;;5002507;28;20090;-85
2021/08/02 09:52:53;;;;;;;4.60;2.88;;;;;;;;;;5001425;28;20058;-85
2021/08/02 09:55:21;;;;;;;6.85;2.70;;;;;;;;;;5000325;28;20050;-85
2021/08/02 09:57:50;;;;;;;4.90;2.95;;;;;;;;;;4999312;28;20145;-85
2021/08/02 10:00:17;;;;;;;10.70;4.03;;;;;;;;;;4998951;28;20051;-85
2021/08/02 10:02:44;;;;;;;7.13;3.35;;;;;;;;;;4999796;28;20070;-85
2021/08/02 10:05:14;;;;;;;4.90;2.90;;;;;;;;;;5012950;28;20046;-85
2021/08/02 10:07:42;;;;;;;4.35;2.90;;;;;;;;;;4997810;28;20046;-86
2021/08/02 10:10:10;;;;;;;5.32;2.70;;;;;;;;;;4997998;28;20054;-85
2021/08/02 10:12:41;;;;;;;4.88;3.50;;;;;;;;;;4995140;28;20058;-85
2021/08/02 10:15:09;;;;;;;5.90;3.38;;;;;;;;;;5013037;28;20084;-86
2021/08/02 10:17:37;;;;;;;6.30;3.45;;;;;;;;;;4996377;28;20458;-85
2021/08/02 10:20:05;;;;;;;7.07;3.13;;;;;;;;;;5001839;28;20049;-84
2021/08/02 10:22:43;;;;;;;6.05;3.40;;;;;;;;;;4987761;28;20047;-86
2021/08/02 10:25:10;;;;;;;6.13;3.13;;;;;;;;;;4979717;28;20051;-85
2021/08/02 10:27:37;;;;;;;4.75;3.47;;;;;;;;;;4996995;28;20058;-85
2021/08/02 10:30:04;;;;;;;6.05;3.15;;;;;;;;;;4997734;28;20046;-84
2021/08/02 10:32:32;;;;;;;5.35;3.42;;;;;;;;;;4998765;28;20484;-84
2021/08/02 10:35:00;;;;;;;7.32;3.30;;;;;;;;;;4997185;28;20050;-84
2021/08/02 10:37:31;;;;;;;4.85;3.40;;;;;;;;;;4976771;28;20051;-84
2021/08/02 10:40:07;;;;;;;7.32;3.17;;;;;;;;;;4977964;28;20050;-85
2021/08/02 10:42:45;;;;;;;6.00;3.22;;;;;;;;;;4979905;28;20133;-86
2021/08/02 10:45:11;;;;;;;4.88;2.78;;;;;;;;;;5000095;28;20042;-85
2021/08/02 10:47:39;;;;;;;4.22;2.50;;;;;;;;;;4982201;28;20116;-86
2021/08/02 10:50:24;;;;;;;3.80;2.50;;;;;;;;;;4989993;28;20077;-85
2021/08/02 10:52:52;;;;;;;3.57;2.50;;;;;;;;;;5013835;28;20046;-84
2021/08/02 10:55:20;;;;;;;5.60;2.63;;;;;;;;;;4993486;28;20503;-84
2021/08/02 10:57:58;;;;;;;4.43;2.55;;;;;;;;;;4993477;28;20070;-85
2021/08/02 11:00:26;;;;;;;5.25;3.00;;;;;;;;;;4986184;28;20050;-85
2021/08/02 11:02:53;;;;;;;5.20;2.90;;;;;;;;;;4998268;28;20042;-85
2021/08/02 11:05:20;;;;;;;4.93;2.40;;;;;;;;;;4995980;28;20042;-84
2021/08/02 11:07:47;;;;;;;4.53;2.63;;;;;;;;;;4998506;28;20050;-84
2021/08/02 11:10:15;;;;;;;3.97;2.70;;;;;;;;;;4994575;28;20050;-85
2021/08/02 11:12:47;;;;;;;4.10;2.33;;;;;;;;;;4980369;28;20058;-84
2021/08/02 11:15:14;;;;;;;5.32;2.55;;;;;;;;;;4992442;28;20057;-84
2021/08/02 11:17:41;;;;;;;4.15;2.22;;;;;;;;;;4995386;28;20394;-84
2021/08/02 11:20:11;;;;;;;4.15;2.40;;;;;;;;;;4986377;28;20047;-85
2021/08/02 11:22:51;;;;;;;3.55;2.33;;;;;;;;;;4997732;28;20129;-84
2021/08/02 11:25:25;;;;;;;4.95;2.10;;;;;;;;;;4990386;28;20051;-83
2021/08/02 11:27:54;;;;;;;3.95;2.42;;;;;;;;;;4991775;28;20403;-84
2021/08/02 11:30:22;;;;;;;3.25;1.65;;;;;;;;;;4997044;28;20056;-85
2021/08/02 11:32:49;;;;;;;3.58;2.10;;;;;;;;;;5000739;28;20085;-84
2021/08/02 11:35:15;;;;;;;3.00;1.83;;;;;;;;;;4985683;28;20047;-86
2021/08/02 11:37:48;;;;;;;6.50;2.05;;;;;;;;;;5002133;28;20050;-85
2021/08/02 11:40:15;;;;;;;3.95;2.08;;;;;;;;;;5001269;28;20073;-85
2021/08/02 11:42:42;;;;;;;6.47;2.30;;;;;;;;;;4998844;28;20050;-85
2021/08/02 11:45:11;;;;;;;3.15;1.75;;;;;;;;;;5001664;28;20046;-84
2021/08/02 11:47:42;;;;;;;4.03;2.00;;;;;;;;;;5000972;28;20057;-85
2021/08/02 11:50:09;;;;;;;3.75;1.92;;;;;;;;;;4993845;28;20061;-85
2021/08/02 11:52:36;;;;;;;4.78;1.98;;;;;;;;;;5015996;28;20491;-85
2021/08/02 11:55:05;;;;;;;4.43;1.90;;;;;;;;;;4982846;28;20057;-84
2021/08/02 11:57:31;;;;;;;3.33;1.63;;;;;;;;;;4998425;28;20050;-83
2021/08/02 11:59:59;;;;;;;4.70;1.90;;;;;;;;;;5000909;28;20054;-87
2021/08/02 12:02:35;;;;;;;4.05;2.00;;;;;;;;;;5001731;28;20057;-84
2021/08/02 12:05:01;;;;;;;3.42;1.75;;;;;;;;;;5002081;28;20050;-85
2021/08/02 12:07:31;;;;;;;5.68;1.45;;;;;;;;;;5016694;28;20050;-85
2021/08/02 12:09:58;;;;;;;10.02;1.83;;;;;;;;;;5002877;28;20053;-84
2021/08/02 12:12:25;;;;;;;3.45;1.40;;;;;;;;;;5017213;28;20050;-85
2021/08/02 12:14:51;;;;;;;14.15;2.25;;;;;;;;;;5002823;28;20046;-85
2021/08/02 12:17:19;;;;;;;5.57;1.88;;;;;;;;;;4998554;28;20050;-85
2021/08/02 12:19:49;;;;;;;3.65;1.60;;;;;;;;;;4998686;28;20046;-84
2021/08/02 12:22:16;;;;;;;3.03;1.67;;;;;;;;;;4998670;28;20057;-84
2021/08/02 12:24:53;;;;;;;2.92;1.40;;;;;;;;;;4999634;28;20046;-84
2021/08/02 12:27:20;;;;;;;2.85;1.70;;;;;;;;;;4999205;28;20050;-84
2021/08/02 12:30:06;;;;;;;3.17;1.90;;;;;;;;;;4997577;28;20050;-84
2021/08/02 12:32:38;;;;;;;3.17;1.55;;;;;;;;;;4995564;28;20046;-84
2021/08/02 12:35:09;;;;;;;7.18;2.05;;;;;;;;;;4998657;28;20054;-85
2021/08/02 12:37:35;;;;;;;3.03;1.55;;;;;;;;;;4999889;28;20049;-84
2021/08/02 12:40:02;;;;;;;2.92;1.50;;;;;;;;;;4994766;28;20062;-85
2021/08/02 12:42:29;;;;;;;2.55;1.60;;;;;;;;;;4978529;28;20447;-85
2021/08/02 12:44:56;;;;;;;3.67;1.58;;;;;;;;;;4994980;28;20050;-84
2021/08/02 12:47:23;;;;;;;2.75;2.00;;;;;;;;;;4997964;28;20046;-85
2021/08/02 12:49:49;;;;;;;3.05;1.52;;;;;;;;;;4998431;28;20046;-85
2021/08/02 12:52:18;;;;;;;3.38;1.65;;;;;;;;;;5004267;28;20050;-84
2021/08/02 12:54:45;;;;;;;3.17;1.70;;;;;;;;;;5007331;28;20041;-84
2021/08/02 12:57:11;;;;;;;2.53;1.40;;;;;;;;;;5021302;28;20050;-84
2021/08/02 12:59:38;;;;;;;2.90;1.80;;;;;;;;;;5005063;28;20049;-85
2021/08/02 13:02:04;;;;;;;5.07;1.90;;;;;;;;;;5005588;28;20053;-85
2021/08/02 13:04:31;;;;;;;4.60;1.42;;;;;;;;;;5005007;28;20054;-85
2021/08/02 13:06:57;;;;;;;5.32;1.52;;;;;;;;;;5006754;28;20054;-83
2021/08/02 13:09:25;;;;;;;3.05;1.65;;;;;;;;;;5007112;28;20483;-85
2021/08/02 13:11:52;;;;;;;5.03;1.73;;;;;;;;;;5002700;28;20050;-84
2021/08/02 13:14:18;;;;;;;4.72;1.60;;;;;;;;;;5003492;28;20050;-82
2021/08/02 13:16:45;;;;;;;3.47;1.35;;;;;;;;;;5003784;28;20499;-83
2021/08/02 13:19:11;;;;;;;2.70;1.63;;;;;;;;;;5004969;28;20046;-83
2021/08/02 13:21:37;;;;;;;4.47;1.67;;;;;;;;;;5005240;28;20052;-84
2021/08/02 13:26:57;;;;;;;3.22;1.60;;;;;;;;;;5007300;28;20052;-82
2021/08/02 13:29:23;;;;;;;3.67;1.60;;;;;;;;;;5008178;28;20057;-82
2021/08/02 13:31:51;;;;;;;4.88;1.60;;;;;;;;;;5004644;28;20114;-83
2021/08/02 13:34:18;;;;;;;1.98;1.40;;;;;;;;;;5006832;28;20061;-83
2021/08/02 13:36:44;;;;;;;3.75;1.70;;;;;;;;;;5008035;28;20047;-85
2021/08/02 13:39:11;;;;;;;4.07;1.52;;;;;;;;;;5007398;28;20050;-85
2021/08/02 13:41:38;;;;;;;3.38;1.83;;;;;;;;;;5008212;28;20050;-84
2021/08/02 13:44:06;;;;;;;3.78;1.58;;;;;;;;;;5006438;28;20046;-83
2021/08/02 13:46:33;;;;;;;4.97;1.60;;;;;;;;;;5009228;28;20046;-84
2021/08/02 13:49:00;;;;;;;4.63;2.00;;;;;;;;;;5008422;28;20042;-85
2021/08/02 13:51:27;;;;;;;2.83;1.60;;;;;;;;;;5007902;28;20051;-85
2021/08/02 13:53:56;;;;;;;3.83;1.52;;;;;;;;;;5009003;28;20058;-85
2021/08/02 13:56:23;;;;;;;2.92;1.70;;;;;;;;;;5000942;28;20046;-84
2021/08/02 13:58:49;;;;;;;6.85;2.97;;;;;;;;;;4998156;28;20054;-84
2021/08/02 14:01:17;;;;;;;3.35;1.33;;;;;;;;;;4995719;28;20061;-84
2021/08/02 14:03:44;;;;;;;4.95;1.60;;;;;;;;;;4997473;28;20046;-84
2021/08/02 14:06:10;;;;;;;3.92;1.70;;;;;;;;;;4996799;28;20046;-84
2021/08/02 14:08:37;;;;;;;4.45;1.88;;;;;;;;;;4995551;28;20046;-85
2021/08/02 14:11:05;;;;;;;3.55;1.65;;;;;;;;;;4990624;28;20492;-83
2021/08/02 14:13:34;;;;;;;4.05;1.92;;;;;;;;;;4980546;28;20348;-82
2021/08/02 14:16:01;;;;;;;4.30;1.55;;;;;;;;;;4984861;28;20047;-83
2021/08/02 14:18:33;;;;;;;4.20;1.85;;;;;;;;;;4987566;28;20043;-83
2021/08/02 14:21:00;;;;;;;2.65;1.80;;;;;;;;;;4997402;28;20049;-83
2021/08/02 14:23:28;;;;;;;3.95;1.58;;;;;;;;;;4981553;28;20074;-84
2021/08/02 14:25:54;;;;;;;3.65;1.52;;;;;;;;;;4988130;28;20053;-83
2021/08/02 14:28:21;;;;;;;2.53;1.45;;;;;;;;;;4991200;28;20057;-83
2021/08/02 14:30:50;;;;;;;2.15;1.45;;;;;;;;;;4987893;28;20042;-85
2021/08/02 14:33:18;;;;;;;2.88;1.40;;;;;;;;;;4993480;28;20050;-84
2021/08/02 14:35:46;;;;;;;5.32;1.90;;;;;;;;;;4981770;28;20412;-83
2021/08/02 14:38:15;;;;;;;3.70;1.60;;;;;;;;;;4987495;28;20066;-84
2021/08/02 14:40:41;;;;;;;3.92;1.65;;;;;;;;;;4995505;28;20474;-84
2021/08/02 14:43:17;;;;;;;3.60;2.00;;;;;;;;;;4987970;28;20081;-82
2021/08/02 14:45:43;;;;;;;;;;;;;;;;;;5003483;28;20046;-86
2021/08/02 14:48:12;;;;;;;4.30;1.48;;;;;;;;;;5003543;28;19928;-85